createdAt,value
2019-04-27T00:02:45.122Z,69.53
2019-04-27T00:07:57.963Z,69.30
2019-04-27T00:13:05.498Z,69.40
2019-04-27T00:18:20.641Z,69.28
2019-04-27T00:23:26.468Z,69.48
2019-04-27T00:28:33.230Z,69.44
2019-04-27T00:33:38.477Z,69.44
2019-04-27T00:39:13.827Z,69.18
2019-04-27T00:44:19.622Z,69.10
2019-04-27T00:49:24.870Z,69.12
2019-04-27T00:54:30.404Z,69.28
2019-04-27T01:00:00.563Z,69.18
2019-04-27T01:05:13.001Z,69.35
2019-04-27T01:10:18.569Z,69.53
2019-04-27T01:15:23.918Z,69.48
2019-04-27T01:20:30.140Z,69.44
2019-04-27T01:26:05.381Z,69.45
2019-04-27T01:31:13.017Z,69.09
2019-04-27T01:36:19.073Z,69.11
2019-04-27T01:41:24.361Z,69.16
2019-04-27T01:46:29.804Z,69.52
2019-04-27T01:51:35.142Z,69.08
2019-04-27T01:56:40.392Z,69.07
2019-04-27T02:02:14.807Z,69.06
2019-04-27T02:07:20.051Z,69.36
2019-04-27T02:12:25.561Z,69.17
2019-04-27T02:17:30.803Z,69.22
2019-04-27T02:22:36.054Z,69.35
2019-04-27T02:27:43.227Z,69.17
2019-04-27T02:33:12.876Z,69.19
2019-04-27T02:38:20.120Z,68.95
2019-04-27T02:43:49.929Z,68.92
2019-04-27T02:49:00.712Z,69.07
2019-04-27T02:54:02.646Z,69.08
2019-04-27T02:59:11.497Z,69.11
2019-04-27T03:04:14.974Z,69.43
2019-04-27T03:09:20.793Z,69.28
2019-04-27T03:14:44.323Z,69.12
2019-04-27T03:19:59.730Z,69.13
2019-04-27T03:25:30.319Z,69.21
2019-04-27T03:30:36.583Z,69.31
2019-04-27T03:35:43.943Z,69.18
2019-04-27T03:40:50.685Z,69.35
2019-04-27T03:45:57.034Z,69.50
2019-04-27T03:51:29.843Z,69.44
2019-04-27T03:56:39.663Z,69.36
2019-04-27T04:01:44.545Z,69.32
2019-04-27T04:06:50.331Z,69.28
2019-04-27T04:12:04.002Z,69.39
2019-04-27T04:17:12.733Z,69.29
2019-04-27T04:22:19.919Z,69.28
2019-04-27T04:27:25.613Z,69.10
2019-04-27T04:32:30.831Z,69.11
2019-04-27T04:37:36.345Z,69.25
2019-04-27T04:42:46.626Z,69.24
2019-04-27T04:48:01.350Z,69.10
2019-04-27T04:53:06.701Z,68.98
2019-04-27T04:58:11.953Z,69.06
2019-04-27T05:03:21.913Z,69.02
2019-04-27T05:08:26.683Z,69.11
2019-04-27T05:13:32.688Z,69.07
2019-04-27T05:18:39.366Z,69.21
2019-04-27T05:23:45.091Z,69.31
2019-04-27T05:28:50.663Z,69.22
2019-04-27T05:33:56.235Z,69.04
2019-04-27T05:39:03.123Z,68.99
2019-04-27T05:44:19.035Z,68.92
2019-04-27T05:49:30.080Z,68.73
2019-04-27T05:54:35.641Z,68.53
2019-04-27T05:59:41.431Z,68.61
2019-04-27T06:04:46.699Z,68.29
2019-04-27T06:09:52.036Z,68.06
2019-04-27T06:14:57.298Z,67.91
2019-04-27T06:20:02.910Z,67.24
2019-04-27T06:25:11.289Z,67.47
2019-04-27T06:30:15.597Z,67.45
2019-04-27T06:35:21.094Z,67.14
2019-04-27T06:40:26.339Z,66.80
2019-04-27T06:45:31.575Z,66.33
2019-04-27T06:50:38.988Z,66.62
2019-04-27T06:55:44.695Z,66.38
2019-04-27T07:00:50.316Z,67.18
2019-04-27T07:05:56.222Z,66.96
2019-04-27T07:11:01.581Z,66.05
2019-04-27T07:16:07.275Z,65.67
2019-04-27T07:21:18.838Z,64.89
2019-04-27T07:26:21.268Z,65.31
2019-04-27T07:31:26.554Z,65.22
2019-04-27T07:36:32.744Z,63.92
2019-04-27T07:41:39.184Z,64.25
2019-04-27T07:46:44.435Z,64.16
2019-04-27T07:51:49.684Z,64.34
2019-04-27T07:56:55.231Z,64.37
2019-04-27T08:02:01.717Z,63.79
2019-04-27T08:07:09.038Z,63.90
2019-04-27T08:12:13.978Z,63.18
2019-04-27T08:17:19.562Z,62.02
2019-04-27T08:22:25.634Z,62.34
2019-04-27T08:27:56.564Z,61.49
2019-04-27T08:33:03.949Z,61.50
2019-04-27T08:38:10.049Z,61.20
2019-04-27T08:43:15.329Z,60.87
2019-04-27T08:48:33.881Z,61.04
2019-04-27T08:53:29.868Z,59.94
2019-04-27T08:58:38.778Z,60.77
2019-04-27T09:03:44.620Z,60.07
2019-04-27T09:09:05.141Z,60.55
2019-04-27T09:14:33.341Z,60.03
2019-04-27T09:20:01.520Z,59.79
2019-04-27T09:25:06.843Z,59.40
2019-04-27T09:30:12.294Z,58.25
2019-04-27T09:35:17.742Z,57.31
2019-04-27T09:40:22.997Z,56.31
2019-04-27T09:45:28.688Z,56.27
2019-04-27T09:50:36.072Z,55.44
2019-04-27T09:55:42.472Z,55.60
2019-04-27T10:00:49.488Z,53.30
2019-04-27T10:05:54.724Z,54.00
2019-04-27T10:10:59.964Z,53.92
2019-04-27T10:16:05.216Z,55.00
2019-04-27T10:21:10.819Z,52.67
2019-04-27T10:26:16.779Z,52.08
2019-04-27T10:31:22.376Z,52.79
2019-04-27T10:36:39.735Z,51.03
2019-04-27T10:41:46.413Z,49.98
2019-04-27T10:46:52.231Z,50.09
2019-04-27T10:51:57.544Z,49.53
2019-04-27T10:57:02.799Z,49.00
2019-04-27T11:02:08.529Z,48.67
2019-04-27T11:07:16.372Z,50.52
2019-04-27T11:12:21.740Z,48.94
2019-04-27T11:17:27.377Z,48.73
2019-04-27T11:22:32.629Z,47.86
2019-04-27T11:27:38.300Z,47.07
2019-04-27T11:32:44.731Z,48.61
2019-04-27T11:37:50.784Z,49.83
2019-04-27T11:42:57.328Z,48.09
2019-04-27T11:48:03.383Z,48.20
2019-04-27T11:53:19.918Z,47.47
2019-04-27T11:58:16.666Z,46.00
2019-04-27T12:03:22.312Z,44.00
2019-04-27T12:08:28.622Z,44.89
2019-04-27T12:13:35.825Z,44.32
2019-04-27T12:18:40.833Z,45.01
2019-04-27T12:23:47.236Z,43.03
2019-04-27T12:28:55.998Z,43.05
2019-04-27T12:34:01.533Z,43.37
2019-04-27T12:39:13.249Z,41.64
2019-04-27T12:44:18.551Z,42.08
2019-04-27T12:49:23.797Z,42.40
2019-04-27T12:54:48.015Z,41.80
2019-04-27T13:00:12.372Z,39.81
2019-04-27T13:05:17.648Z,37.10
2019-04-27T13:10:23.073Z,37.68
2019-04-27T13:15:28.356Z,38.09
2019-04-27T13:20:33.558Z,37.22
2019-04-27T13:25:38.809Z,38.46
2019-04-27T13:30:47.499Z,37.50
2019-04-27T13:35:53.140Z,38.39
2019-04-27T13:41:25.617Z,37.26
2019-04-27T13:46:46.037Z,37.16
2019-04-27T13:52:02.210Z,36.96
2019-04-27T13:57:07.654Z,36.59
2019-04-27T14:02:15.960Z,38.17
2019-04-27T14:07:21.874Z,40.71
2019-04-27T14:12:28.481Z,43.22
2019-04-27T14:17:34.028Z,45.24
2019-04-27T14:22:39.667Z,48.11
2019-04-27T14:27:44.960Z,49.59
2019-04-27T14:32:51.119Z,50.63
2019-04-27T14:37:58.067Z,52.19
2019-04-27T14:43:03.496Z,52.30
2019-04-27T14:48:12.745Z,53.20
2019-04-27T14:53:17.071Z,52.00
2019-04-27T14:58:22.672Z,52.15
2019-04-27T15:03:28.249Z,51.68
2019-04-27T15:08:34.148Z,52.20
2019-04-27T15:13:43.169Z,51.60
2019-04-27T15:18:52.109Z,51.74
2019-04-27T15:23:57.342Z,52.10
2019-04-27T15:29:05.051Z,52.66
2019-04-27T15:34:17.518Z,52.87
2019-04-27T15:39:41.964Z,51.91
2019-04-27T15:44:47.681Z,51.92
2019-04-27T15:49:54.682Z,52.16
2019-04-27T15:55:02.943Z,51.98
2019-04-27T16:00:17.121Z,51.49
2019-04-27T16:05:19.203Z,52.04
2019-04-27T16:10:24.801Z,52.03
2019-04-27T16:15:30.049Z,52.48
2019-04-27T16:20:38.004Z,52.78
2019-04-27T16:25:48.375Z,52.53
2019-04-27T16:30:53.945Z,53.01
2019-04-27T16:36:06.333Z,53.75
2019-04-27T16:41:05.350Z,55.84
2019-04-27T16:46:10.592Z,57.71
2019-04-27T16:51:15.916Z,58.87
2019-04-27T16:56:24.299Z,60.30
2019-04-27T17:01:30.505Z,61.38
2019-04-27T17:06:39.180Z,62.31
2019-04-27T17:12:41.267Z,63.04
2019-04-27T17:17:08.746Z,61.91
2019-04-27T17:22:16.387Z,62.50
2019-04-27T17:27:31.700Z,62.72
2019-04-27T17:32:51.813Z,62.46
2019-04-27T17:37:59.433Z,63.42
2019-04-27T17:43:08.055Z,63.56
2019-04-27T17:48:14.169Z,64.49
2019-04-27T17:53:20.293Z,64.39
2019-04-27T17:58:25.662Z,63.48
2019-04-27T18:03:30.928Z,63.48
2019-04-27T18:08:40.076Z,63.44
2019-04-27T18:13:43.142Z,62.99
2019-04-27T18:19:06.152Z,63.53
2019-04-27T18:24:10.268Z,62.56
2019-04-27T18:29:18.318Z,62.61
2019-04-27T18:34:23.148Z,61.12
2019-04-27T18:39:28.874Z,63.84
2019-04-27T18:44:34.391Z,65.01
2019-04-27T18:50:07.354Z,65.47
2019-04-27T18:55:04.471Z,66.71
2019-04-27T19:00:12.657Z,67.18
2019-04-27T19:05:18.845Z,67.00
2019-04-27T19:10:24.823Z,67.90
2019-04-27T19:15:29.958Z,68.22
2019-04-27T19:20:35.193Z,67.76
2019-04-27T19:25:52.071Z,67.81
2019-04-27T19:31:02.339Z,67.68
2019-04-27T19:36:08.920Z,67.82
2019-04-27T19:41:14.757Z,67.73
2019-04-27T19:46:20.185Z,67.78
2019-04-27T19:51:27.878Z,67.36
2019-04-27T19:56:33.752Z,68.04
2019-04-27T20:01:43.016Z,68.16
2019-04-27T20:06:48.566Z,68.36
2019-04-27T20:11:54.816Z,69.33
2019-04-27T20:17:00.108Z,69.29
2019-04-27T20:22:05.290Z,69.05
2019-04-27T20:27:10.959Z,69.03
2019-04-27T20:32:21.373Z,69.23
2019-04-27T20:37:26.704Z,69.24
2019-04-27T20:42:31.955Z,69.43
2019-04-27T20:47:38.303Z,69.52
2019-04-27T20:52:54.648Z,69.75
2019-04-27T20:58:02.671Z,69.64
2019-04-27T21:03:32.568Z,69.56
2019-04-27T21:08:37.671Z,69.31
2019-04-27T21:13:42.967Z,69.06
2019-04-27T21:18:48.654Z,69.00
2019-04-27T21:23:54.831Z,69.31
2019-04-27T21:29:01.485Z,69.37
2019-04-27T21:34:06.717Z,69.65
2019-04-27T21:39:12.226Z,69.56
2019-04-27T21:44:19.362Z,69.33
2019-04-27T21:49:24.525Z,69.28
2019-04-27T21:54:30.805Z,69.23
2019-04-27T21:59:38.601Z,68.91
2019-04-27T22:04:43.797Z,69.01
2019-04-27T22:09:49.312Z,69.11
2019-04-27T22:14:54.697Z,68.78
2019-04-27T22:20:01.622Z,68.18
2019-04-27T22:25:11.664Z,68.20
2019-04-27T22:30:17.280Z,68.62
2019-04-27T22:35:22.532Z,68.28
2019-04-27T22:40:54.274Z,67.90
2019-04-27T22:46:01.145Z,67.28
2019-04-27T22:51:06.460Z,67.40
2019-04-27T22:56:16.233Z,66.83
2019-04-27T23:01:35.394Z,67.05
2019-04-27T23:06:41.823Z,66.75
2019-04-27T23:11:48.287Z,66.60
2019-04-27T23:16:56.361Z,66.58
2019-04-27T23:22:01.608Z,66.26
2019-04-27T23:27:06.783Z,66.46
2019-04-27T23:32:23.695Z,66.35
2019-04-27T23:37:28.988Z,67.07
2019-04-27T23:42:34.139Z,67.25
2019-04-27T23:47:39.387Z,67.12
2019-04-27T23:53:04.068Z,67.67
2019-04-27T23:58:09.229Z,67.33
